Pelkie, Michigan
Current Conditions -  °F | °C
As of 4:53 AM on Wednesday 26 Nov 2014 (Local Time) from KCMX Reporting Station
Few Clouds Few Clouds  
Wind Chill:   Ceiling: Unl
Heat Index:   Visibility: 10mi
Dew Point:   Wind: 0mph
Humidity: 80%   Direction: NA
Pressure: 30.09"   Gusts: NA
Location:  46.81°N, 88.64°W
Report Text: KCMX 260953Z AUTO 00000KT 10SM FEW035 M13/M16 A3009 RMK AO2 SLP212 T11281156 $
Loading
Personal Weather Stations






























Interactive Weather Map New forecast layout! Learn more

10-Day Weather Forecast

Advertisements
Track Severe Weather on mobile